Naples, FL (34116)

7:49 PM EDT on July 30, 2016 (GMT -0400)
| | Change Station

Elev -9999 ft 0.00 °N, 0.00 °E | Updated

Mostly Cloudy
Mostly Cloudy
79 °F
Feels Like 79 °F
N
4
Wind Variable Wind from ESE
Gusts mph

Today
High -- | Low -- °F
--% Chance of Precip.
Yesterday
High -- | Low -- °F
Precip. -- in
Pressure 30.04 in
Visibility 1.8 miles
Clouds Few 2800 ft
Mostly Cloudy 5000 ft
Overcast 6000 ft
Dew Point 73 °F
Humidity 84%
Rainfall --
Snow Depth Not available.
6:51 AM 8:14 PM
Waning Crescent, 10% visible
SPECI KAPF 302339Z 09012KT 1 3/4SM TSRA FEW028 BKN050 OVC060 24/22 A3004 RMK AO2 LTG DSNT NE-S RAB32 TSB28 P0002 T02440217
Pressure 30.04 in
Visibility 1.8 miles
Clouds Few 2800 ft
Mostly Cloudy 5000 ft
Overcast 6000 ft
Dew Point 73 °F
Humidity 84%
Rainfall --
Snow Depth Not available.
6:51 AM 8:14 PM
Waning Crescent, 10% visible
SPECI KAPF 302339Z 09012KT 1 3/4SM TSRA FEW028 BKN050 OVC060 24/22 A3004 RMK AO2 LTG DSNT NE-S RAB32 TSB28 P0002 T02440217

10-Day Weather Forecast

Almanac

Astronomy

Jul. 30, 2016 Rise Set
Actual Time
Civil Twilight
Nautical Twilight
Astronomical Twilight
Moon
Length of Visible Light
Length of Day
Tomorrow will be .
, % of the Moon is Illuminated

Today's Extremes

State Highs State Lows

Community

WunderPhotos

Upload Photos

1,928,680 photos uploaded!

WunderBlog® & News

Nearby

Air Quality

  Air Quality AQ Index Pollutant
Not available.

Snow Depth

Station Depth Elevation

Earthquake Activity

City Distance Mag. Time & Date
Minimum magnitude displayed is 2.5.

Coastal Water Temperatures

Place Temperature

Stations

Nearby Weather Stations

Station Location Temp. Windchill Dew Point Humidity Wind Precip. Elev Updated Type
                   

Watches & Warnings

There are currently no watches in effect.